sensor_id;sensor_type;location;lat;lon;timestamp;temperature;humidity
51878;SHT31;37911;51.526;11.536;2024-03-02T00:00:37;4.38;89.57
51878;SHT31;37911;51.526;11.536;2024-03-02T00:03:41;4.33;89.58
51878;SHT31;37911;51.526;11.536;2024-03-02T00:06:45;4.28;89.63
51878;SHT31;37911;51.526;11.536;2024-03-02T00:09:50;4.28;89.72
51878;SHT31;37911;51.526;11.536;2024-03-02T00:12:55;4.25;89.68
51878;SHT31;37911;51.526;11.536;2024-03-02T00:15:59;4.25;89.77
51878;SHT31;37911;51.526;11.536;2024-03-02T00:19:05;4.24;89.89
51878;SHT31;37911;51.526;11.536;2024-03-02T00:22:08;4.21;89.92
51878;SHT31;37911;51.526;11.536;2024-03-02T00:25:14;4.22;89.90
51878;SHT31;37911;51.526;11.536;2024-03-02T00:28:17;4.17;90.01
51878;SHT31;37911;51.526;11.536;2024-03-02T00:31:22;4.18;90.04
51878;SHT31;37911;51.526;11.536;2024-03-02T00:34:25;4.16;90.10
51878;SHT31;37911;51.526;11.536;2024-03-02T00:37:28;4.14;90.15
51878;SHT31;37911;51.526;11.536;2024-03-02T00:40:35;4.14;90.19
51878;SHT31;37911;51.526;11.536;2024-03-02T00:43:39;4.13;90.17
51878;SHT31;37911;51.526;11.536;2024-03-02T00:46:44;4.11;90.15
51878;SHT31;37911;51.526;11.536;2024-03-02T00:49:47;4.10;90.18
51878;SHT31;37911;51.526;11.536;2024-03-02T00:52:50;4.10;90.28
51878;SHT31;37911;51.526;11.536;2024-03-02T00:55:56;4.07;90.51
51878;SHT31;37911;51.526;11.536;2024-03-02T00:58:59;4.14;90.56
51878;SHT31;37911;51.526;11.536;2024-03-02T01:02:03;4.16;90.63
51878;SHT31;37911;51.526;11.536;2024-03-02T01:05:06;4.18;90.67
51878;SHT31;37911;51.526;11.536;2024-03-02T01:08:11;4.24;90.56
51878;SHT31;37911;51.526;11.536;2024-03-02T01:11:17;4.21;90.46
51878;SHT31;37911;51.526;11.536;2024-03-02T01:14:22;4.17;90.31
51878;SHT31;37911;51.526;11.536;2024-03-02T01:17:25;4.13;90.26
51878;SHT31;37911;51.526;11.536;2024-03-02T01:20:28;4.16;90.21
51878;SHT31;37911;51.526;11.536;2024-03-02T01:23:31;4.17;90.17
51878;SHT31;37911;51.526;11.536;2024-03-02T01:26:37;4.13;90.19
51878;SHT31;37911;51.526;11.536;2024-03-02T01:29:40;4.11;90.36
51878;SHT31;37911;51.526;11.536;2024-03-02T01:32:43;4.10;90.55
51878;SHT31;37911;51.526;11.536;2024-03-02T01:35:46;4.13;90.49
51878;SHT31;37911;51.526;11.536;2024-03-02T01:38:49;4.18;90.42
51878;SHT31;37911;51.526;11.536;2024-03-02T01:41:55;4.13;90.25
51878;SHT31;37911;51.526;11.536;2024-03-02T01:44:58;4.09;90.19
51878;SHT31;37911;51.526;11.536;2024-03-02T01:48:01;4.07;90.31
51878;SHT31;37911;51.526;11.536;2024-03-02T01:51:05;4.09;90.35
51878;SHT31;37911;51.526;11.536;2024-03-02T01:54:09;4.11;90.51
51878;SHT31;37911;51.526;11.536;2024-03-02T01:57:14;4.16;90.57
51878;SHT31;37911;51.526;11.536;2024-03-02T02:00:18;4.13;90.62
51878;SHT31;37911;51.526;11.536;2024-03-02T02:03:21;4.17;90.68
51878;SHT31;37911;51.526;11.536;2024-03-02T02:06:24;4.16;90.59
51878;SHT31;37911;51.526;11.536;2024-03-02T02:09:28;4.11;90.54
51878;SHT31;37911;51.526;11.536;2024-03-02T02:12:33;4.11;90.49
51878;SHT31;37911;51.526;11.536;2024-03-02T02:15:36;4.14;90.66
51878;SHT31;37911;51.526;11.536;2024-03-02T02:18:40;4.17;90.64
51878;SHT31;37911;51.526;11.536;2024-03-02T02:21:45;4.21;90.90
51878;SHT31;37911;51.526;11.536;2024-03-02T02:24:48;4.22;90.90
51878;SHT31;37911;51.526;11.536;2024-03-02T02:27:52;4.22;90.98
51878;SHT31;37911;51.526;11.536;2024-03-02T02:30:55;4.22;91.00
51878;SHT31;37911;51.526;11.536;2024-03-02T02:34:00;4.24;90.99
51878;SHT31;37911;51.526;11.536;2024-03-02T02:37:06;4.28;91.11
51878;SHT31;37911;51.526;11.536;2024-03-02T02:40:09;4.37;90.94
51878;SHT31;37911;51.526;11.536;2024-03-02T02:43:13;4.38;91.05
51878;SHT31;37911;51.526;11.536;2024-03-02T02:46:17;4.37;91.03
51878;SHT31;37911;51.526;11.536;2024-03-02T02:49:20;4.38;91.09
51878;SHT31;37911;51.526;11.536;2024-03-02T02:52:25;4.40;91.11
51878;SHT31;37911;51.526;11.536;2024-03-02T02:55:29;4.41;91.12
51878;SHT31;37911;51.526;11.536;2024-03-02T02:58:32;4.42;91.10
51878;SHT31;37911;51.526;11.536;2024-03-02T03:01:35;4.42;90.95
51878;SHT31;37911;51.526;11.536;2024-03-02T03:04:39;4.44;90.98
51878;SHT31;37911;51.526;11.536;2024-03-02T03:07:45;4.42;91.00
51878;SHT31;37911;51.526;11.536;2024-03-02T03:10:50;4.47;90.98
51878;SHT31;37911;51.526;11.536;2024-03-02T03:13:53;4.48;90.97
51878;SHT31;37911;51.526;11.536;2024-03-02T03:16:56;4.51;90.98
51878;SHT31;37911;51.526;11.536;2024-03-02T03:20:00;4.50;91.00
51878;SHT31;37911;51.526;11.536;2024-03-02T03:23:06;4.48;91.04
51878;SHT31;37911;51.526;11.536;2024-03-02T03:26:10;4.48;91.14
51878;SHT31;37911;51.526;11.536;2024-03-02T03:29:13;4.45;91.18
51878;SHT31;37911;51.526;11.536;2024-03-02T03:32:16;4.48;91.11
51878;SHT31;37911;51.526;11.536;2024-03-02T03:35:20;4.47;91.01
51878;SHT31;37911;51.526;11.536;2024-03-02T03:38:25;4.48;91.00
51878;SHT31;37911;51.526;11.536;2024-03-02T03:41:28;4.50;90.93
51878;SHT31;37911;51.526;11.536;2024-03-02T03:44:31;4.48;90.88
51878;SHT31;37911;51.526;11.536;2024-03-02T03:47:35;4.44;91.00
51878;SHT31;37911;51.526;11.536;2024-03-02T03:50:38;4.47;90.99
51878;SHT31;37911;51.526;11.536;2024-03-02T03:53:43;4.48;90.99
51878;SHT31;37911;51.526;11.536;2024-03-02T03:56:46;4.50;91.01
51878;SHT31;37911;51.526;11.536;2024-03-02T03:59:50;4.51;90.98
51878;SHT31;37911;51.526;11.536;2024-03-02T04:02:53;4.51;90.99
51878;SHT31;37911;51.526;11.536;2024-03-02T04:05:56;4.54;91.06
51878;SHT31;37911;51.526;11.536;2024-03-02T04:09:02;4.55;90.98
51878;SHT31;37911;51.526;11.536;2024-03-02T04:12:06;4.50;91.02
51878;SHT31;37911;51.526;11.536;2024-03-02T04:15:09;4.51;91.00
51878;SHT31;37911;51.526;11.536;2024-03-02T04:18:13;4.57;90.96
51878;SHT31;37911;51.526;11.536;2024-03-02T04:21:16;4.55;90.96
51878;SHT31;37911;51.526;11.536;2024-03-02T04:24:22;4.55;90.99
51878;SHT31;37911;51.526;11.536;2024-03-02T04:27:25;4.58;90.98
51878;SHT31;37911;51.526;11.536;2024-03-02T04:30:28;4.57;91.01
51878;SHT31;37911;51.526;11.536;2024-03-02T04:33:31;4.57;91.06
51878;SHT31;37911;51.526;11.536;2024-03-02T04:36:34;4.60;91.09
51878;SHT31;37911;51.526;11.536;2024-03-02T04:39:40;4.61;91.18
51878;SHT31;37911;51.526;11.536;2024-03-02T04:42:43;4.61;91.20
51878;SHT31;37911;51.526;11.536;2024-03-02T04:45:46;4.65;91.35
51878;SHT31;37911;51.526;11.536;2024-03-02T04:48:49;4.64;91.55
51878;SHT31;37911;51.526;11.536;2024-03-02T04:51:55;4.68;91.57
51878;SHT31;37911;51.526;11.536;2024-03-02T04:55:01;4.65;91.73
51878;SHT31;37911;51.526;11.536;2024-03-02T04:58:30;4.67;91.87
51878;SHT31;37911;51.526;11.536;2024-03-02T05:01:33;4.67;91.88
51878;SHT31;37911;51.526;11.536;2024-03-02T05:04:36;4.65;92.07
51878;SHT31;37911;51.526;11.536;2024-03-02T05:07:39;4.69;92.26
51878;SHT31;37911;51.526;11.536;2024-03-02T05:10:46;4.71;92.25
51878;SHT31;37911;51.526;11.536;2024-03-02T05:13:49;4.73;92.46
51878;SHT31;37911;51.526;11.536;2024-03-02T05:16:50;4.76;92.42
51878;SHT31;37911;51.526;11.536;2024-03-02T05:19:53;4.79;92.67
51878;SHT31;37911;51.526;11.536;2024-03-02T05:22:56;4.79;92.73
51878;SHT31;37911;51.526;11.536;2024-03-02T05:26:02;4.83;92.81
51878;SHT31;37911;51.526;11.536;2024-03-02T05:29:06;4.81;92.93
51878;SHT31;37911;51.526;11.536;2024-03-02T05:32:09;4.83;92.92
51878;SHT31;37911;51.526;11.536;2024-03-02T05:35:12;4.86;92.92
51878;SHT31;37911;51.526;11.536;2024-03-02T05:38:15;4.85;92.92
51878;SHT31;37911;51.526;11.536;2024-03-02T05:41:21;4.86;92.92
51878;SHT31;37911;51.526;11.536;2024-03-02T05:44:24;4.89;92.93
51878;SHT31;37911;51.526;11.536;2024-03-02T05:47:27;4.92;92.90
51878;SHT31;37911;51.526;11.536;2024-03-02T05:50:30;4.92;92.84
51878;SHT31;37911;51.526;11.536;2024-03-02T05:53:34;4.93;92.93
51878;SHT31;37911;51.526;11.536;2024-03-02T05:56:41;4.96;92.97
51878;SHT31;37911;51.526;11.536;2024-03-02T05:59:44;4.93;93.21
51878;SHT31;37911;51.526;11.536;2024-03-02T06:02:47;4.85;93.41
51878;SHT31;37911;51.526;11.536;2024-03-02T06:05:50;4.79;93.58
51878;SHT31;37911;51.526;11.536;2024-03-02T06:08:54;4.83;93.53
51878;SHT31;37911;51.526;11.536;2024-03-02T06:11:59;4.82;93.51
51878;SHT31;37911;51.526;11.536;2024-03-02T06:15:03;4.85;93.57
51878;SHT31;37911;51.526;11.536;2024-03-02T06:18:07;4.89;93.52
51878;SHT31;37911;51.526;11.536;2024-03-02T06:21:10;4.89;93.63
51878;SHT31;37911;51.526;11.536;2024-03-02T06:24:13;4.93;93.67
51878;SHT31;37911;51.526;11.536;2024-03-02T06:27:19;4.99;93.66
51878;SHT31;37911;51.526;11.536;2024-03-02T06:30:22;4.99;93.78
51878;SHT31;37911;51.526;11.536;2024-03-02T06:33:25;4.99;93.78
51878;SHT31;37911;51.526;11.536;2024-03-02T06:36:28;5.03;93.88
51878;SHT31;37911;51.526;11.536;2024-03-02T06:39:32;5.05;93.84
51878;SHT31;37911;51.526;11.536;2024-03-02T06:42:39;5.05;93.84
51878;SHT31;37911;51.526;11.536;2024-03-02T06:45:42;5.05;93.89
51878;SHT31;37911;51.526;11.536;2024-03-02T06:48:45;5.02;94.01
51878;SHT31;37911;51.526;11.536;2024-03-02T06:51:48;5.05;94.10
51878;SHT31;37911;51.526;11.536;2024-03-02T06:54:51;5.08;94.11
51878;SHT31;37911;51.526;11.536;2024-03-02T06:57:57;5.11;94.07
51878;SHT31;37911;51.526;11.536;2024-03-02T07:01:00;5.19;93.97
51878;SHT31;37911;51.526;11.536;2024-03-02T07:04:03;5.25;93.88
51878;SHT31;37911;51.526;11.536;2024-03-02T07:07:07;5.35;93.80
51878;SHT31;37911;51.526;11.536;2024-03-02T07:10:10;5.37;93.84
51878;SHT31;37911;51.526;11.536;2024-03-02T07:13:16;5.46;93.82
51878;SHT31;37911;51.526;11.536;2024-03-02T07:16:19;5.48;93.73
51878;SHT31;37911;51.526;11.536;2024-03-02T07:19:28;5.58;93.65
51878;SHT31;37911;51.526;11.536;2024-03-02T07:22:31;5.66;93.54
51878;SHT31;37911;51.526;11.536;2024-03-02T07:25:34;5.70;93.46
51878;SHT31;37911;51.526;11.536;2024-03-02T07:28:40;5.83;93.36
51878;SHT31;37911;51.526;11.536;2024-03-02T07:31:44;5.91;93.17
51878;SHT31;37911;51.526;11.536;2024-03-02T07:34:47;6.12;92.87
51878;SHT31;37911;51.526;11.536;2024-03-02T07:37:51;6.25;92.67
51878;SHT31;37911;51.526;11.536;2024-03-02T07:40:54;6.36;92.43
51878;SHT31;37911;51.526;11.536;2024-03-02T07:44:00;6.46;92.34
51878;SHT31;37911;51.526;11.536;2024-03-02T07:47:03;6.48;92.15
51878;SHT31;37911;51.526;11.536;2024-03-02T07:50:06;6.56;91.87
51878;SHT31;37911;51.526;11.536;2024-03-02T07:53:10;6.68;91.67
51878;SHT31;37911;51.526;11.536;2024-03-02T07:56:14;6.77;91.37
51878;SHT31;37911;51.526;11.536;2024-03-02T07:59:24;6.97;91.17
51878;SHT31;37911;51.526;11.536;2024-03-02T08:02:28;7.20;90.86
51878;SHT31;37911;51.526;11.536;2024-03-02T08:05:31;7.50;90.26
51878;SHT31;37911;51.526;11.536;2024-03-02T08:08:34;7.72;89.52
51878;SHT31;37911;51.526;11.536;2024-03-02T08:11:37;8.05;88.60
51878;SHT31;37911;51.526;11.536;2024-03-02T08:14:43;8.53;87.80
51878;SHT31;37911;51.526;11.536;2024-03-02T08:17:46;8.66;86.96
51878;SHT31;37911;51.526;11.536;2024-03-02T08:20:50;8.91;85.87
51878;SHT31;37911;51.526;11.536;2024-03-02T08:23:53;9.35;84.91
51878;SHT31;37911;51.526;11.536;2024-03-02T08:26:58;9.66;84.23
51878;SHT31;37911;51.526;11.536;2024-03-02T08:30:05;9.86;83.22
51878;SHT31;37911;51.526;11.536;2024-03-02T08:33:11;10.00;82.38
51878;SHT31;37911;51.526;11.536;2024-03-02T08:36:14;10.02;82.17
51878;SHT31;37911;51.526;11.536;2024-03-02T08:39:18;9.87;82.27
51878;SHT31;37911;51.526;11.536;2024-03-02T08:42:22;9.68;83.00
51878;SHT31;37911;51.526;11.536;2024-03-02T08:45:28;9.62;83.53
51878;SHT31;37911;51.526;11.536;2024-03-02T08:48:32;9.43;83.73
51878;SHT31;37911;51.526;11.536;2024-03-02T08:51:35;9.34;84.54
51878;SHT31;37911;51.526;11.536;2024-03-02T08:54:38;9.14;85.23
51878;SHT31;37911;51.526;11.536;2024-03-02T08:57:42;9.22;85.45
51878;SHT31;37911;51.526;11.536;2024-03-02T09:00:48;9.17;85.76
51878;SHT31;37911;51.526;11.536;2024-03-02T09:03:51;9.17;86.01
51878;SHT31;37911;51.526;11.536;2024-03-02T09:06:54;9.12;86.54
51878;SHT31;37911;51.526;11.536;2024-03-02T09:09:57;9.18;86.46
51878;SHT31;37911;51.526;11.536;2024-03-02T09:13:01;9.18;86.24
51878;SHT31;37911;51.526;11.536;2024-03-02T09:16:07;9.05;86.87
51878;SHT31;37911;51.526;11.536;2024-03-02T09:19:11;9.10;86.74
51878;SHT31;37911;51.526;11.536;2024-03-02T09:22:14;9.11;86.85
51878;SHT31;37911;51.526;11.536;2024-03-02T09:25:18;9.22;86.68
51878;SHT31;37911;51.526;11.536;2024-03-02T09:28:21;9.27;86.66
51878;SHT31;37911;51.526;11.536;2024-03-02T09:31:27;9.46;86.33
51878;SHT31;37911;51.526;11.536;2024-03-02T09:34:30;9.63;85.86
51878;SHT31;37911;51.526;11.536;2024-03-02T09:37:34;9.78;85.56
51878;SHT31;37911;51.526;11.536;2024-03-02T09:40:37;9.79;85.50
51878;SHT31;37911;51.526;11.536;2024-03-02T09:43:42;9.82;85.25
51878;SHT31;37911;51.526;11.536;2024-03-02T09:46:51;9.94;85.39
51878;SHT31;37911;51.526;11.536;2024-03-02T09:49:54;10.09;85.18
51878;SHT31;37911;51.526;11.536;2024-03-02T09:52:58;10.27;84.73
51878;SHT31;37911;51.526;11.536;2024-03-02T09:56:02;10.34;84.61
51878;SHT31;37911;51.526;11.536;2024-03-02T09:59:06;10.48;84.38
51878;SHT31;37911;51.526;11.536;2024-03-02T10:02:12;10.67;83.72
51878;SHT31;37911;51.526;11.536;2024-03-02T10:05:23;10.82;82.95
51878;SHT31;37911;51.526;11.536;2024-03-02T10:08:42;10.97;82.54
51878;SHT31;37911;51.526;11.536;2024-03-02T10:11:45;11.09;81.65
51878;SHT31;37911;51.526;11.536;2024-03-02T10:14:49;11.14;82.19
51878;SHT31;37911;51.526;11.536;2024-03-02T10:17:55;11.14;82.26
51878;SHT31;37911;51.526;11.536;2024-03-02T10:21:13;11.22;81.01
51878;SHT31;37911;51.526;11.536;2024-03-02T10:24:17;11.36;79.52
51878;SHT31;37911;51.526;11.536;2024-03-02T10:27:23;11.47;76.71
51878;SHT31;37911;51.526;11.536;2024-03-02T10:30:30;11.50;77.50
51878;SHT31;37911;51.526;11.536;2024-03-02T10:33:36;11.60;76.61
51878;SHT31;37911;51.526;11.536;2024-03-02T10:36:41;11.76;76.08
51878;SHT31;37911;51.526;11.536;2024-03-02T10:39:45;11.77;75.52
51878;SHT31;37911;51.526;11.536;2024-03-02T10:42:50;11.93;75.36
51878;SHT31;37911;51.526;11.536;2024-03-02T10:45:54;11.93;74.83
51878;SHT31;37911;51.526;11.536;2024-03-02T10:49:02;11.86;74.71
51878;SHT31;37911;51.526;11.536;2024-03-02T10:52:05;11.91;74.97
51878;SHT31;37911;51.526;11.536;2024-03-02T10:55:09;12.17;74.47
51878;SHT31;37911;51.526;11.536;2024-03-02T10:58:13;12.49;74.13
51878;SHT31;37911;51.526;11.536;2024-03-02T11:01:18;13.00;73.00
51878;SHT31;37911;51.526;11.536;2024-03-02T11:04:25;13.36;71.28
51878;SHT31;37911;51.526;11.536;2024-03-02T11:07:29;13.64;70.94
51878;SHT31;37911;51.526;11.536;2024-03-02T11:10:35;13.30;71.79
51878;SHT31;37911;51.526;11.536;2024-03-02T11:13:42;13.18;71.52
51878;SHT31;37911;51.526;11.536;2024-03-02T11:16:50;13.08;71.72
51878;SHT31;37911;51.526;11.536;2024-03-02T11:19:57;13.05;72.05
51878;SHT31;37911;51.526;11.536;2024-03-02T11:23:04;12.91;71.75
51878;SHT31;37911;51.526;11.536;2024-03-02T11:26:16;12.93;72.48
51878;SHT31;37911;51.526;11.536;2024-03-02T11:32:39;13.10;71.65
51878;SHT31;37911;51.526;11.536;2024-03-02T11:35:44;13.57;69.58
51878;SHT31;37911;51.526;11.536;2024-03-02T11:38:48;13.74;67.33
51878;SHT31;37911;51.526;11.536;2024-03-02T11:41:53;13.80;68.15
51878;SHT31;37911;51.526;11.536;2024-03-02T11:44:57;14.01;68.75
51878;SHT31;37911;51.526;11.536;2024-03-02T11:48:00;14.10;67.27
51878;SHT31;37911;51.526;11.536;2024-03-02T11:51:06;13.90;67.79
51878;SHT31;37911;51.526;11.536;2024-03-02T11:54:09;13.81;68.36
51878;SHT31;37911;51.526;11.536;2024-03-02T11:57:13;13.73;68.58
51878;SHT31;37911;51.526;11.536;2024-03-02T12:00:17;13.71;68.41
51878;SHT31;37911;51.526;11.536;2024-03-02T12:03:21;14.02;67.69
51878;SHT31;37911;51.526;11.536;2024-03-02T12:06:28;14.05;67.55
51878;SHT31;37911;51.526;11.536;2024-03-02T12:09:32;14.45;67.43
51878;SHT31;37911;51.526;11.536;2024-03-02T12:12:35;14.80;64.58
51878;SHT31;37911;51.526;11.536;2024-03-02T12:15:38;14.97;65.20
51878;SHT31;37911;51.526;11.536;2024-03-02T12:18:41;14.97;64.68
51878;SHT31;37911;51.526;11.536;2024-03-02T12:21:48;14.99;63.70
51878;SHT31;37911;51.526;11.536;2024-03-02T12:24:51;15.16;64.89
51878;SHT31;37911;51.526;11.536;2024-03-02T12:27:56;15.39;63.79
51878;SHT31;37911;51.526;11.536;2024-03-02T12:30:59;15.46;62.98
51878;SHT31;37911;51.526;11.536;2024-03-02T12:34:03;15.19;64.69
51878;SHT31;37911;51.526;11.536;2024-03-02T12:37:11;14.76;65.35
51878;SHT31;37911;51.526;11.536;2024-03-02T12:40:16;14.66;66.11
51878;SHT31;37911;51.526;11.536;2024-03-02T12:43:20;14.58;65.50
51878;SHT31;37911;51.526;11.536;2024-03-02T12:46:24;14.45;66.17
51878;SHT31;37911;51.526;11.536;2024-03-02T12:49:28;14.71;65.79
51878;SHT31;37911;51.526;11.536;2024-03-02T12:52:35;14.58;66.28
51878;SHT31;37911;51.526;11.536;2024-03-02T12:55:39;14.85;65.84
51878;SHT31;37911;51.526;11.536;2024-03-02T12:58:42;14.79;66.63
51878;SHT31;37911;51.526;11.536;2024-03-02T13:01:50;14.77;65.97
51878;SHT31;37911;51.526;11.536;2024-03-02T13:04:54;14.44;65.54
51878;SHT31;37911;51.526;11.536;2024-03-02T13:08:00;14.61;66.12
51878;SHT31;37911;51.526;11.536;2024-03-02T13:11:06;14.61;64.17
51878;SHT31;37911;51.526;11.536;2024-03-02T13:14:10;14.55;64.72
51878;SHT31;37911;51.526;11.536;2024-03-02T13:17:14;14.75;64.29
51878;SHT31;37911;51.526;11.536;2024-03-02T13:20:17;14.39;63.16
51878;SHT31;37911;51.526;11.536;2024-03-02T13:23:23;14.10;62.63
51878;SHT31;37911;51.526;11.536;2024-03-02T13:26:26;14.17;63.55
51878;SHT31;37911;51.526;11.536;2024-03-02T13:29:30;14.10;63.39
51878;SHT31;37911;51.526;11.536;2024-03-02T13:32:34;14.12;62.15
51878;SHT31;37911;51.526;11.536;2024-03-02T13:35:37;14.35;62.10
51878;SHT31;37911;51.526;11.536;2024-03-02T13:38:43;14.45;60.14
51878;SHT31;37911;51.526;11.536;2024-03-02T13:41:46;14.46;59.85
51878;SHT31;37911;51.526;11.536;2024-03-02T13:44:53;14.65;60.63
51878;SHT31;37911;51.526;11.536;2024-03-02T13:47:56;14.59;59.65
51878;SHT31;37911;51.526;11.536;2024-03-02T13:51:00;14.69;60.49
51878;SHT31;37911;51.526;11.536;2024-03-02T13:54:06;14.71;60.72
51878;SHT31;37911;51.526;11.536;2024-03-02T13:57:10;14.56;61.13
51878;SHT31;37911;51.526;11.536;2024-03-02T14:00:14;14.18;60.14
51878;SHT31;37911;51.526;11.536;2024-03-02T14:03:18;14.24;58.96
51878;SHT31;37911;51.526;11.536;2024-03-02T14:06:21;14.36;60.02
51878;SHT31;37911;51.526;11.536;2024-03-02T14:09:30;14.62;58.53
51878;SHT31;37911;51.526;11.536;2024-03-02T14:12:33;14.65;58.26
51878;SHT31;37911;51.526;11.536;2024-03-02T14:15:36;14.65;57.04
51878;SHT31;37911;51.526;11.536;2024-03-02T14:18:40;14.85;56.48
51878;SHT31;37911;51.526;11.536;2024-03-02T14:21:44;15.00;57.10
51878;SHT31;37911;51.526;11.536;2024-03-02T14:24:50;14.87;57.38
51878;SHT31;37911;51.526;11.536;2024-03-02T14:27:54;14.96;58.18
51878;SHT31;37911;51.526;11.536;2024-03-02T14:30:58;14.87;59.30
51878;SHT31;37911;51.526;11.536;2024-03-02T14:34:02;14.69;60.22
51878;SHT31;37911;51.526;11.536;2024-03-02T14:37:06;14.59;60.17
51878;SHT31;37911;51.526;11.536;2024-03-02T14:40:12;14.54;58.75
51878;SHT31;37911;51.526;11.536;2024-03-02T14:43:16;14.48;58.25
51878;SHT31;37911;51.526;11.536;2024-03-02T14:46:19;14.49;58.62
51878;SHT31;37911;51.526;11.536;2024-03-02T14:49:23;14.58;58.67
51878;SHT31;37911;51.526;11.536;2024-03-02T14:52:29;14.46;61.01
51878;SHT31;37911;51.526;11.536;2024-03-02T14:55:39;14.52;61.95
51878;SHT31;37911;51.526;11.536;2024-03-02T14:58:44;14.41;62.35
51878;SHT31;37911;51.526;11.536;2024-03-02T15:01:48;14.48;62.45
51878;SHT31;37911;51.526;11.536;2024-03-02T15:04:51;14.59;61.90
51878;SHT31;37911;51.526;11.536;2024-03-02T15:07:55;14.69;62.65
51878;SHT31;37911;51.526;11.536;2024-03-02T15:11:02;14.66;62.69
51878;SHT31;37911;51.526;11.536;2024-03-02T15:14:05;14.58;62.35
51878;SHT31;37911;51.526;11.536;2024-03-02T15:17:09;14.31;63.02
51878;SHT31;37911;51.526;11.536;2024-03-02T15:20:12;14.18;63.74
51878;SHT31;37911;51.526;11.536;2024-03-02T15:23:16;13.98;63.94
51878;SHT31;37911;51.526;11.536;2024-03-02T15:26:21;13.94;64.03
51878;SHT31;37911;51.526;11.536;2024-03-02T15:29:25;13.77;64.69
51878;SHT31;37911;51.526;11.536;2024-03-02T15:32:29;13.57;65.50
51878;SHT31;37911;51.526;11.536;2024-03-02T15:35:34;13.51;65.67
51878;SHT31;37911;51.526;11.536;2024-03-02T15:38:38;13.37;65.49
51878;SHT31;37911;51.526;11.536;2024-03-02T15:41:49;13.33;65.97
51878;SHT31;37911;51.526;11.536;2024-03-02T15:44:53;13.19;65.79
51878;SHT31;37911;51.526;11.536;2024-03-02T15:47:57;13.10;66.36
51878;SHT31;37911;51.526;11.536;2024-03-02T15:51:01;13.06;66.52
51878;SHT31;37911;51.526;11.536;2024-03-02T15:54:04;12.99;66.86
51878;SHT31;37911;51.526;11.536;2024-03-02T15:57:11;12.91;67.28
51878;SHT31;37911;51.526;11.536;2024-03-02T16:00:15;12.76;67.59
51878;SHT31;37911;51.526;11.536;2024-03-02T16:03:19;12.69;68.10
51878;SHT31;37911;51.526;11.536;2024-03-02T16:06:23;12.62;68.45
51878;SHT31;37911;51.526;11.536;2024-03-02T16:09:28;12.54;68.93
51878;SHT31;37911;51.526;11.536;2024-03-02T16:12:35;12.44;69.43
51878;SHT31;37911;51.526;11.536;2024-03-02T16:15:38;12.34;70.01
51878;SHT31;37911;51.526;11.536;2024-03-02T16:18:41;12.25;70.28
51878;SHT31;37911;51.526;11.536;2024-03-02T16:21:45;12.17;70.76
51878;SHT31;37911;51.526;11.536;2024-03-02T16:24:48;12.07;71.28
51878;SHT31;37911;51.526;11.536;2024-03-02T16:27:54;12.01;71.58
51878;SHT31;37911;51.526;11.536;2024-03-02T16:30:57;11.94;71.80
51878;SHT31;37911;51.526;11.536;2024-03-02T16:34:01;11.86;72.08
51878;SHT31;37911;51.526;11.536;2024-03-02T16:37:04;11.71;72.53
51878;SHT31;37911;51.526;11.536;2024-03-02T16:40:08;11.60;73.14
51878;SHT31;37911;51.526;11.536;2024-03-02T16:43:14;11.55;73.37
51878;SHT31;37911;51.526;11.536;2024-03-02T16:46:17;11.43;73.85
51878;SHT31;37911;51.526;11.536;2024-03-02T16:49:20;11.36;74.13
51878;SHT31;37911;51.526;11.536;2024-03-02T16:52:23;11.30;75.28
51878;SHT31;37911;51.526;11.536;2024-03-02T16:55:28;11.20;74.88
51878;SHT31;37911;51.526;11.536;2024-03-02T16:58:33;11.15;74.79
51878;SHT31;37911;51.526;11.536;2024-03-02T17:01:37;11.07;74.89
51878;SHT31;37911;51.526;11.536;2024-03-02T17:04:41;11.04;75.05
51878;SHT31;37911;51.526;11.536;2024-03-02T17:07:44;10.95;75.28
51878;SHT31;37911;51.526;11.536;2024-03-02T17:10:47;10.89;75.34
51878;SHT31;37911;51.526;11.536;2024-03-02T17:13:53;10.82;75.73
51878;SHT31;37911;51.526;11.536;2024-03-02T17:16:57;10.78;75.93
51878;SHT31;37911;51.526;11.536;2024-03-02T17:20:01;10.69;76.00
51878;SHT31;37911;51.526;11.536;2024-03-02T17:23:04;10.63;76.17
51878;SHT31;37911;51.526;11.536;2024-03-02T17:26:08;10.53;76.41
51878;SHT31;37911;51.526;11.536;2024-03-02T17:29:13;10.47;76.59
51878;SHT31;37911;51.526;11.536;2024-03-02T17:32:16;10.37;76.94
51878;SHT31;37911;51.526;11.536;2024-03-02T17:35:20;10.32;77.12
51878;SHT31;37911;51.526;11.536;2024-03-02T17:38:24;10.24;77.09
51878;SHT31;37911;51.526;11.536;2024-03-02T17:41:28;10.12;77.20
51878;SHT31;37911;51.526;11.536;2024-03-02T17:44:34;9.89;77.31
51878;SHT31;37911;51.526;11.536;2024-03-02T17:47:37;9.75;77.83
51878;SHT31;37911;51.526;11.536;2024-03-02T17:50:40;9.58;77.95
51878;SHT31;37911;51.526;11.536;2024-03-02T17:53:43;9.42;78.30
51878;SHT31;37911;51.526;11.536;2024-03-02T17:56:49;9.29;78.48
51878;SHT31;37911;51.526;11.536;2024-03-02T17:59:55;9.11;79.03
51878;SHT31;37911;51.526;11.536;2024-03-02T18:03:00;9.01;79.32
51878;SHT31;37911;51.526;11.536;2024-03-02T18:06:05;8.96;79.79
51878;SHT31;37911;51.526;11.536;2024-03-02T18:09:09;8.92;80.36
51878;SHT31;37911;51.526;11.536;2024-03-02T18:12:12;8.87;80.22
51878;SHT31;37911;51.526;11.536;2024-03-02T18:15:18;8.81;80.20
51878;SHT31;37911;51.526;11.536;2024-03-02T18:18:22;8.66;80.42
51878;SHT31;37911;51.526;11.536;2024-03-02T18:21:25;8.70;80.36
51878;SHT31;37911;51.526;11.536;2024-03-02T18:24:28;8.60;80.76
51878;SHT31;37911;51.526;11.536;2024-03-02T18:27:32;8.46;80.87
51878;SHT31;37911;51.526;11.536;2024-03-02T18:30:38;8.42;81.01
51878;SHT31;37911;51.526;11.536;2024-03-02T18:33:41;8.34;81.19
51878;SHT31;37911;51.526;11.536;2024-03-02T18:36:45;8.29;81.31
51878;SHT31;37911;51.526;11.536;2024-03-02T18:39:48;8.26;81.24
51878;SHT31;37911;51.526;11.536;2024-03-02T18:42:51;8.21;81.31
51878;SHT31;37911;51.526;11.536;2024-03-02T18:45:57;8.12;81.46
51878;SHT31;37911;51.526;11.536;2024-03-02T18:49:01;8.07;81.49
51878;SHT31;37911;51.526;11.536;2024-03-02T18:52:04;7.99;81.75
51878;SHT31;37911;51.526;11.536;2024-03-02T18:55:08;7.96;82.09
51878;SHT31;37911;51.526;11.536;2024-03-02T18:58:12;7.93;82.21
51878;SHT31;37911;51.526;11.536;2024-03-02T19:01:18;7.83;82.39
51878;SHT31;37911;51.526;11.536;2024-03-02T19:04:21;7.85;82.28
51878;SHT31;37911;51.526;11.536;2024-03-02T19:07:25;7.78;81.97
51878;SHT31;37911;51.526;11.536;2024-03-02T19:10:28;7.75;81.90
51878;SHT31;37911;51.526;11.536;2024-03-02T19:13:31;7.67;82.04
51878;SHT31;37911;51.526;11.536;2024-03-02T19:16:37;7.58;82.51
51878;SHT31;37911;51.526;11.536;2024-03-02T19:19:41;7.52;82.81